Time;durP1;ratioP1;P1;durP2;ratioP2;P2;SDS_P1;SDS_P2;PMS_P1;PMS_P2;Temp;Humidity;BMP_temperature;BMP_pressure;BME280_temperature;BME280_humidity;BME280_pressure;Samples;Min_cycle;Max_cycle;Signal;HPM_P1;HPM_P2
2022/12/19 00:02:13;;;;;;;8.25;4.43;;;;;;;;;;5143243;27;20039;-59
2022/12/19 00:04:39;;;;;;;10.07;5.60;;;;;;;;;;5141327;27;20054;-59
2022/12/19 00:07:05;;;;;;;9.68;5.13;;;;;;;;;;5143347;27;20207;-59
2022/12/19 00:09:32;;;;;;;8.02;5.38;;;;;;;;;;5140946;27;20051;-59
2022/12/19 00:11:58;;;;;;;8.18;5.43;;;;;;;;;;5141453;27;20083;-59
2022/12/19 00:14:25;;;;;;;9.07;5.13;;;;;;;;;;5142676;27;20051;-59
2022/12/19 00:16:51;;;;;;;9.32;4.90;;;;;;;;;;5143779;27;20042;-59
2022/12/19 00:19:17;;;;;;;12.88;6.45;;;;;;;;;;5141304;27;20541;-59
2022/12/19 00:21:43;;;;;;;15.07;5.90;;;;;;;;;;5142715;27;20464;-59
2022/12/19 00:24:10;;;;;;;10.18;4.97;;;;;;;;;;5141331;27;20042;-59
2022/12/19 00:26:38;;;;;;;9.07;4.95;;;;;;;;;;5143564;27;20039;-59
2022/12/19 00:29:06;;;;;;;9.25;5.88;;;;;;;;;;5144815;27;20035;-59
2022/12/19 00:31:33;;;;;;;9.35;5.65;;;;;;;;;;5141968;27;20073;-59
2022/12/19 00:33:59;;;;;;;10.63;5.10;;;;;;;;;;5141643;27;20067;-59
2022/12/19 00:36:27;;;;;;;8.43;5.35;;;;;;;;;;5142309;27;20132;-59
2022/12/19 00:38:53;;;;;;;9.50;5.05;;;;;;;;;;5143127;27;20042;-59
2022/12/19 00:41:24;;;;;;;11.05;4.88;;;;;;;;;;5143784;27;20035;-59
2022/12/19 00:43:54;;;;;;;8.35;4.63;;;;;;;;;;5144247;27;20042;-59
2022/12/19 00:46:20;;;;;;;10.48;4.38;;;;;;;;;;5143045;27;20039;-59
2022/12/19 00:48:46;;;;;;;7.60;4.38;;;;;;;;;;5142469;27;20039;-59
2022/12/19 00:51:14;;;;;;;7.65;5.15;;;;;;;;;;5142811;27;20035;-59
2022/12/19 00:53:40;;;;;;;7.65;4.63;;;;;;;;;;5143101;27;20123;-59
2022/12/19 00:56:07;;;;;;;9.32;5.32;;;;;;;;;;5142959;27;20039;-59
2022/12/19 00:58:34;;;;;;;8.32;4.90;;;;;;;;;;5143329;27;20153;-59
2022/12/19 01:01:05;;;;;;;8.20;4.20;;;;;;;;;;5146043;27;20043;-59
2022/12/19 01:03:31;;;;;;;7.30;3.13;;;;;;;;;;5144984;27;20043;-59
2022/12/19 01:05:57;;;;;;;9.60;5.20;;;;;;;;;;5147705;27;20055;-59
2022/12/19 01:08:23;;;;;;;9.05;5.00;;;;;;;;;;5147538;27;20494;-59
2022/12/19 01:10:50;;;;;;;8.95;4.93;;;;;;;;;;5164062;27;20110;-59
2022/12/19 01:13:17;;;;;;;8.23;5.18;;;;;;;;;;5145923;27;20043;-59
2022/12/19 01:15:43;;;;;;;7.68;4.63;;;;;;;;;;5143026;27;20051;-59
2022/12/19 01:18:10;;;;;;;10.35;4.70;;;;;;;;;;5146234;27;20077;-59
2022/12/19 01:20:40;;;;;;;8.32;5.30;;;;;;;;;;5147158;27;20121;-59
2022/12/19 01:23:07;;;;;;;6.43;4.35;;;;;;;;;;5143989;27;20910;-59
2022/12/19 01:25:34;;;;;;;7.05;4.75;;;;;;;;;;5142126;27;20570;-59
2022/12/19 01:28:00;;;;;;;6.68;3.97;;;;;;;;;;5147360;27;20043;-59
2022/12/19 01:30:27;;;;;;;8.25;5.07;;;;;;;;;;5144796;27;20095;-59
2022/12/19 01:32:53;;;;;;;7.47;4.38;;;;;;;;;;5146389;27;20039;-59
2022/12/19 01:35:19;;;;;;;9.07;5.15;;;;;;;;;;5145873;27;20050;-59
2022/12/19 01:37:45;;;;;;;9.02;4.28;;;;;;;;;;5145236;27;20035;-59
2022/12/19 01:40:12;;;;;;;7.78;3.80;;;;;;;;;;5145784;27;20143;-59
2022/12/19 01:42:38;;;;;;;6.43;3.90;;;;;;;;;;5147232;27;20074;-59
2022/12/19 01:45:07;;;;;;;6.32;3.72;;;;;;;;;;5145862;27;20035;-59
2022/12/19 01:47:35;;;;;;;19.50;5.55;;;;;;;;;;5145110;27;20082;-58
2022/12/19 01:50:02;;;;;;;6.47;4.03;;;;;;;;;;5146120;27;20598;-58
2022/12/19 01:52:29;;;;;;;10.07;4.78;;;;;;;;;;5145445;27;20046;-59
2022/12/19 01:54:55;;;;;;;5.93;3.78;;;;;;;;;;5146412;27;20509;-58
2022/12/19 01:57:21;;;;;;;14.23;4.55;;;;;;;;;;5145135;27;20953;-59
2022/12/19 01:59:49;;;;;;;7.60;4.57;;;;;;;;;;5146576;27;20184;-59
2022/12/19 02:02:19;;;;;;;8.18;4.80;;;;;;;;;;5144560;27;20524;-59
2022/12/19 02:04:45;;;;;;;7.15;4.10;;;;;;;;;;5145836;27;20091;-58
2022/12/19 02:07:12;;;;;;;6.90;3.83;;;;;;;;;;5146274;27;20554;-58
2022/12/19 02:09:38;;;;;;;6.88;4.20;;;;;;;;;;5146296;27;20039;-58
2022/12/19 02:12:04;;;;;;;10.30;5.10;;;;;;;;;;5145039;27;20081;-58
2022/12/19 02:14:30;;;;;;;6.43;4.20;;;;;;;;;;5145825;27;20035;-59
2022/12/19 02:16:57;;;;;;;8.35;4.53;;;;;;;;;;5142497;27;20532;-58
2022/12/19 02:19:41;;;;;;;7.80;3.95;;;;;;;;;;5147208;27;20046;-59
2022/12/19 02:22:15;;;;;;;6.75;4.32;;;;;;;;;;5145512;27;20512;-59
2022/12/19 02:24:54;;;;;;;6.50;4.15;;;;;;;;;;5146307;27;20421;-59
2022/12/19 02:27:20;;;;;;;7.22;3.45;;;;;;;;;;5139550;27;20045;-59
2022/12/19 02:29:52;;;;;;;6.10;4.30;;;;;;;;;;5144793;27;20154;-59
2022/12/19 02:32:37;;;;;;;8.15;4.10;;;;;;;;;;5142632;27;20043;-59
2022/12/19 02:35:12;;;;;;;5.70;3.75;;;;;;;;;;5145552;27;20043;-58
2022/12/19 02:37:44;;;;;;;6.68;3.58;;;;;;;;;;5145839;27;20067;-58
2022/12/19 02:40:14;;;;;;;8.07;4.05;;;;;;;;;;5145450;27;20123;-58
2022/12/19 02:42:43;;;;;;;7.50;3.83;;;;;;;;;;5144462;27;20050;-59
2022/12/19 02:45:10;;;;;;;8.93;4.22;;;;;;;;;;5140519;27;20044;-59
2022/12/19 02:47:37;;;;;;;8.98;4.03;;;;;;;;;;5136933;27;20508;-59
2022/12/19 02:50:04;;;;;;;6.88;4.35;;;;;;;;;;5142396;27;20223;-59
2022/12/19 02:52:30;;;;;;;7.28;3.80;;;;;;;;;;5139988;27;20121;-59
2022/12/19 02:55:00;;;;;;;6.95;3.70;;;;;;;;;;5143737;27;20114;-58
2022/12/19 02:57:46;;;;;;;5.88;4.07;;;;;;;;;;5140073;27;20049;-58
2022/12/19 03:00:18;;;;;;;6.07;3.40;;;;;;;;;;5141089;27;20031;-60
2022/12/19 03:02:47;;;;;;;4.05;3.08;;;;;;;;;;5140855;27;20046;-59
2022/12/19 03:05:15;;;;;;;7.05;3.85;;;;;;;;;;5143595;27;20205;-58
2022/12/19 03:07:44;;;;;;;5.53;3.60;;;;;;;;;;5141029;27;20043;-59
2022/12/19 03:10:16;;;;;;;6.35;3.47;;;;;;;;;;5140562;27;20094;-58
2022/12/19 03:12:48;;;;;;;5.57;3.33;;;;;;;;;;5140936;27;20045;-59
2022/12/19 03:15:15;;;;;;;8.93;4.28;;;;;;;;;;5141753;27;20166;-58
2022/12/19 03:17:41;;;;;;;6.05;3.30;;;;;;;;;;5141498;27;20043;-58
2022/12/19 03:20:19;;;;;;;6.60;3.88;;;;;;;;;;5137976;27;20070;-59
2022/12/19 03:22:45;;;;;;;7.22;4.35;;;;;;;;;;5139389;27;20043;-58
2022/12/19 03:25:11;;;;;;;6.57;4.03;;;;;;;;;;5141040;27;20081;-59
2022/12/19 03:27:38;;;;;;;5.72;3.60;;;;;;;;;;5142801;27;20096;-59
2022/12/19 03:30:07;;;;;;;5.05;3.25;;;;;;;;;;5138314;27;20066;-59
2022/12/19 03:32:34;;;;;;;5.13;2.88;;;;;;;;;;5142877;27;20662;-59
2022/12/19 03:35:04;;;;;;;6.55;3.28;;;;;;;;;;5139107;27;20039;-59
2022/12/19 03:37:33;;;;;;;4.65;2.60;;;;;;;;;;5143106;27;20527;-59
2022/12/19 03:40:00;;;;;;;4.93;2.97;;;;;;;;;;5143739;27;20039;-59
2022/12/19 03:45:15;;;;;;;7.40;3.58;;;;;;;;;;5143596;27;20043;-59
2022/12/19 03:47:44;;;;;;;7.03;3.33;;;;;;;;;;5142866;27;20568;-59
2022/12/19 03:50:10;;;;;;;8.63;3.08;;;;;;;;;;5144300;27;20054;-58
2022/12/19 03:52:43;;;;;;;5.60;3.53;;;;;;;;;;5143083;27;20608;-58
2022/12/19 03:55:09;;;;;;;;;;;;;;;;;;5145254;27;20031;-59
2022/12/19 03:57:39;;;;;;;6.00;2.83;;;;;;;;;;5145037;27;20463;-58
2022/12/19 04:00:07;;;;;;;5.07;3.50;;;;;;;;;;5142041;27;20042;-58
2022/12/19 04:02:35;;;;;;;6.88;3.70;;;;;;;;;;5143544;27;20050;-58
2022/12/19 04:05:04;;;;;;;6.35;3.00;;;;;;;;;;5144695;27;20043;-59
2022/12/19 04:07:30;;;;;;;10.40;5.28;;;;;;;;;;5143834;27;20051;-59
2022/12/19 04:10:00;;;;;;;4.78;2.95;;;;;;;;;;5144600;27;20065;-59
2022/12/19 04:12:30;;;;;;;4.63;2.95;;;;;;;;;;5144031;27;20150;-59
2022/12/19 04:14:56;;;;;;;5.60;3.28;;;;;;;;;;5142678;27;20037;-59
2022/12/19 04:17:39;;;;;;;5.55;3.60;;;;;;;;;;5141152;27;20035;-58
2022/12/19 04:20:10;;;;;;;4.97;3.03;;;;;;;;;;5158610;27;20047;-59
2022/12/19 04:22:43;;;;;;;5.53;3.00;;;;;;;;;;5143575;27;20634;-59
2022/12/19 04:25:13;;;;;;;6.88;3.40;;;;;;;;;;5142271;27;20051;-59
2022/12/19 04:27:41;;;;;;;4.03;2.72;;;;;;;;;;5142923;27;20046;-58
2022/12/19 04:30:08;;;;;;;7.93;3.53;;;;;;;;;;5141291;27;20518;-58
2022/12/19 04:32:35;;;;;;;4.97;3.20;;;;;;;;;;5141168;27;20043;-59
2022/12/19 04:35:01;;;;;;;5.93;3.28;;;;;;;;;;5143234;27;20108;-58
2022/12/19 04:37:28;;;;;;;6.40;3.05;;;;;;;;;;5147386;27;20451;-59
2022/12/19 04:39:54;;;;;;;4.65;3.33;;;;;;;;;;5146802;27;20145;-59
2022/12/19 04:42:20;;;;;;;8.38;3.72;;;;;;;;;;5147247;27;20053;-59
2022/12/19 04:44:46;;;;;;;6.32;4.20;;;;;;;;;;5143907;27;20035;-59
2022/12/19 04:47:13;;;;;;;6.22;4.18;;;;;;;;;;5144555;27;20065;-59
2022/12/19 04:49:39;;;;;;;6.55;4.00;;;;;;;;;;5144948;27;20043;-59
2022/12/19 04:52:05;;;;;;;5.80;3.13;;;;;;;;;;5144511;27;20038;-59
2022/12/19 04:54:31;;;;;;;8.40;3.45;;;;;;;;;;5146163;27;20043;-58
2022/12/19 04:56:58;;;;;;;4.75;3.15;;;;;;;;;;5145734;27;20035;-59
2022/12/19 04:59:24;;;;;;;6.00;3.17;;;;;;;;;;5146431;27;20043;-59
2022/12/19 05:01:50;;;;;;;6.43;3.20;;;;;;;;;;5143397;27;20528;-58
2022/12/19 05:04:16;;;;;;;5.90;3.83;;;;;;;;;;5146603;27;20087;-58
2022/12/19 05:06:42;;;;;;;6.28;4.05;;;;;;;;;;5146142;27;20047;-59
2022/12/19 05:09:10;;;;;;;7.88;3.50;;;;;;;;;;5146241;27;20117;-59
2022/12/19 05:11:36;;;;;;;5.63;3.00;;;;;;;;;;5145648;27;20039;-58
2022/12/19 05:14:02;;;;;;;5.47;2.70;;;;;;;;;;5146072;27;20095;-58
2022/12/19 05:16:28;;;;;;;9.15;3.90;;;;;;;;;;5145857;27;20045;-59
2022/12/19 05:18:55;;;;;;;7.40;4.38;;;;;;;;;;5147878;27;20045;-59
2022/12/19 05:21:22;;;;;;;6.03;3.50;;;;;;;;;;5146923;27;20039;-59
2022/12/19 05:23:48;;;;;;;4.13;2.72;;;;;;;;;;5146308;27;20039;-59
2022/12/19 05:26:14;;;;;;;5.47;3.33;;;;;;;;;;5162707;27;20039;-59
2022/12/19 05:28:41;;;;;;;6.32;3.53;;;;;;;;;;5146298;27;20924;-58
2022/12/19 05:31:11;;;;;;;4.78;3.00;;;;;;;;;;5143814;27;20051;-59
2022/12/19 05:33:38;;;;;;;10.75;3.65;;;;;;;;;;5144184;27;20036;-59
2022/12/19 05:36:04;;;;;;;7.65;3.33;;;;;;;;;;5146324;27;20046;-59
2022/12/19 05:38:31;;;;;;;7.50;3.65;;;;;;;;;;5147125;27;20046;-59
2022/12/19 05:40:57;;;;;;;8.27;4.00;;;;;;;;;;5147550;27;20035;-59
2022/12/19 05:43:23;;;;;;;5.10;3.42;;;;;;;;;;5145489;27;20110;-59
2022/12/19 05:45:49;;;;;;;8.32;3.92;;;;;;;;;;5140876;27;20092;-59
2022/12/19 05:48:15;;;;;;;5.45;3.38;;;;;;;;;;5141643;27;20039;-59
2022/12/19 05:50:46;;;;;;;11.90;4.10;;;;;;;;;;5143173;27;20053;-58
2022/12/19 05:53:12;;;;;;;5.70;3.75;;;;;;;;;;5145595;27;20043;-58
2022/12/19 05:55:38;;;;;;;3.75;2.60;;;;;;;;;;5143448;27;20126;-59
2022/12/19 05:58:04;;;;;;;9.43;3.42;;;;;;;;;;5146882;27;20175;-59
2022/12/19 06:00:30;;;;;;;5.20;4.13;;;;;;;;;;5145022;27;20618;-58
2022/12/19 06:02:57;;;;;;;4.78;3.13;;;;;;;;;;5144012;27;20045;-59
2022/12/19 06:05:23;;;;;;;7.60;3.45;;;;;;;;;;5143257;27;20039;-59
2022/12/19 06:07:49;;;;;;;5.60;3.28;;;;;;;;;;5140969;27;20878;-59
2022/12/19 06:10:15;;;;;;;5.55;2.90;;;;;;;;;;5162513;27;20560;-58
2022/12/19 06:12:41;;;;;;;6.60;3.47;;;;;;;;;;5141965;27;20053;-59
2022/12/19 06:15:07;;;;;;;8.00;4.35;;;;;;;;;;5138555;27;20114;-59
2022/12/19 06:17:33;;;;;;;4.97;3.10;;;;;;;;;;5141961;27;20537;-59
2022/12/19 06:19:59;;;;;;;6.32;3.20;;;;;;;;;;5137431;27;20593;-58
2022/12/19 06:22:25;;;;;;;5.50;3.40;;;;;;;;;;5144478;27;20648;-59
2022/12/19 06:24:51;;;;;;;5.65;2.85;;;;;;;;;;5143086;27;20035;-58
2022/12/19 06:27:18;;;;;;;4.57;2.97;;;;;;;;;;5143885;27;20046;-59
2022/12/19 06:29:44;;;;;;;5.22;3.38;;;;;;;;;;5141338;27;20495;-58
2022/12/19 06:32:10;;;;;;;7.53;3.45;;;;;;;;;;5143988;27;20035;-59
2022/12/19 06:34:36;;;;;;;4.47;2.55;;;;;;;;;;5144205;27;20045;-59
2022/12/19 06:37:02;;;;;;;6.47;3.17;;;;;;;;;;5145038;27;20527;-59
2022/12/19 06:39:28;;;;;;;4.28;2.63;;;;;;;;;;5144237;27;20046;-59
2022/12/19 06:44:39;;;;;;;5.80;2.97;;;;;;;;;;5143057;27;20054;-59
2022/12/19 06:47:05;;;;;;;10.20;3.45;;;;;;;;;;5145526;27;20476;-58
2022/12/19 06:49:31;;;;;;;7.32;3.97;;;;;;;;;;5144378;27;20114;-62
2022/12/19 06:51:57;;;;;;;8.52;2.88;;;;;;;;;;5144617;27;20043;-59
2022/12/19 06:54:23;;;;;;;6.32;3.08;;;;;;;;;;5145431;27;20043;-58
2022/12/19 06:56:49;;;;;;;4.43;2.88;;;;;;;;;;5146329;27;20043;-59
2022/12/19 06:59:16;;;;;;;5.03;3.15;;;;;;;;;;5144607;27;20158;-58
2022/12/19 07:02:03;;;;;;;5.22;3.00;;;;;;;;;;5144423;27;20106;-58
2022/12/19 07:04:32;;;;;;;8.65;3.35;;;;;;;;;;5143961;27;20531;-59
2022/12/19 07:06:58;;;;;;;5.72;3.10;;;;;;;;;;5142832;27;20520;-58
2022/12/19 07:09:26;;;;;;;4.53;3.35;;;;;;;;;;5138552;27;20138;-58
2022/12/19 07:11:52;;;;;;;5.03;2.75;;;;;;;;;;5142803;27;20126;-59
2022/12/19 07:14:18;;;;;;;5.38;2.50;;;;;;;;;;5144053;27;20126;-58
2022/12/19 07:16:45;;;;;;;7.13;3.25;;;;;;;;;;5138842;27;20099;-59
2022/12/19 07:19:11;;;;;;;4.25;2.88;;;;;;;;;;5135855;27;20138;-59
2022/12/19 07:21:38;;;;;;;5.20;2.95;;;;;;;;;;5138900;27;20046;-58
2022/12/19 07:24:04;;;;;;;5.35;3.17;;;;;;;;;;5139913;27;20731;-59
2022/12/19 07:26:30;;;;;;;4.13;2.65;;;;;;;;;;5143686;27;20043;-59
2022/12/19 07:28:57;;;;;;;7.22;3.10;;;;;;;;;;5138967;27;20047;-59
2022/12/19 07:31:23;;;;;;;5.32;2.90;;;;;;;;;;5138533;27;20058;-59
2022/12/19 07:33:49;;;;;;;5.90;3.42;;;;;;;;;;5139524;27;20115;-59
2022/12/19 07:36:15;;;;;;;4.82;3.15;;;;;;;;;;5142076;27;20126;-58
2022/12/19 07:38:41;;;;;;;6.30;2.75;;;;;;;;;;5142691;27;20118;-58
2022/12/19 07:41:07;;;;;;;8.77;3.53;;;;;;;;;;5141208;27;20039;-58
2022/12/19 07:43:33;;;;;;;5.72;2.90;;;;;;;;;;5140103;27;20464;-58
2022/12/19 07:46:00;;;;;;;6.93;3.05;;;;;;;;;;5138150;27;20031;-58
2022/12/19 07:48:27;;;;;;;5.82;2.85;;;;;;;;;;5141470;27;20055;-59
2022/12/19 07:50:53;;;;;;;5.00;3.25;;;;;;;;;;5140187;27;20184;-58
2022/12/19 07:53:19;;;;;;;5.00;2.30;;;;;;;;;;5135174;27;20050;-59
2022/12/19 07:55:49;;;;;;;4.20;3.00;;;;;;;;;;5135696;27;20035;-59
2022/12/19 07:58:15;;;;;;;5.63;3.15;;;;;;;;;;5133229;27;20050;-58
2022/12/19 08:00:41;;;;;;;6.03;3.22;;;;;;;;;;5133880;27;21964;-59
2022/12/19 08:03:07;;;;;;;6.03;2.63;;;;;;;;;;5139461;27;20035;-58
2022/12/19 08:05:33;;;;;;;5.10;3.28;;;;;;;;;;5139630;27;20055;-58
2022/12/19 08:07:59;;;;;;;4.35;2.92;;;;;;;;;;5143207;27;20038;-59
2022/12/19 08:10:26;;;;;;;5.57;3.22;;;;;;;;;;5142678;27;20238;-58
2022/12/19 08:12:52;;;;;;;5.70;2.72;;;;;;;;;;5143130;27;20124;-59
2022/12/19 08:15:18;;;;;;;4.22;2.33;;;;;;;;;;5140693;27;21146;-59
2022/12/19 08:17:44;;;;;;;3.65;2.53;;;;;;;;;;5143071;27;20983;-58
2022/12/19 08:20:10;;;;;;;9.80;3.30;;;;;;;;;;5142660;27;20039;-58
2022/12/19 08:22:36;;;;;;;4.88;2.50;;;;;;;;;;5143553;27;20062;-59
2022/12/19 08:25:03;;;;;;;5.22;2.88;;;;;;;;;;5144642;27;20053;-59
2022/12/19 08:27:29;;;;;;;3.60;2.33;;;;;;;;;;5145444;27;20052;-59
2022/12/19 08:29:55;;;;;;;4.80;2.72;;;;;;;;;;5139765;27;20047;-58
2022/12/19 08:32:21;;;;;;;5.63;3.63;;;;;;;;;;5145433;27;20835;-59
2022/12/19 08:34:47;;;;;;;9.25;3.30;;;;;;;;;;5144270;27;20118;-58
2022/12/19 08:37:13;;;;;;;5.50;2.70;;;;;;;;;;5145080;27;20045;-59
2022/12/19 08:39:39;;;;;;;5.13;3.03;;;;;;;;;;5144821;27;20126;-59
2022/12/19 08:42:05;;;;;;;3.53;2.38;;;;;;;;;;5144624;27;20054;-58
2022/12/19 08:44:31;;;;;;;6.78;2.95;;;;;;;;;;5144067;27;20234;-58
2022/12/19 08:46:57;;;;;;;6.07;2.88;;;;;;;;;;5143414;27;20570;-59
2022/12/19 08:49:24;;;;;;;4.78;2.63;;;;;;;;;;5143318;27;20471;-59
2022/12/19 08:51:50;;;;;;;8.75;3.35;;;;;;;;;;5143433;27;20070;-59
2022/12/19 08:54:16;;;;;;;6.10;4.05;;;;;;;;;;5140863;27;20110;-59
2022/12/19 08:56:42;;;;;;;3.88;2.63;;;;;;;;;;5143755;27;20043;-58
2022/12/19 08:59:08;;;;;;;8.82;3.83;;;;;;;;;;5159161;27;20039;-59
2022/12/19 09:01:34;;;;;;;5.60;2.92;;;;;;;;;;5144069;27;20078;-59
2022/12/19 09:04:01;;;;;;;5.10;3.20;;;;;;;;;;5143644;27;20305;-59
2022/12/19 09:06:27;;;;;;;4.57;2.55;;;;;;;;;;5140912;27;20054;-59
2022/12/19 09:08:53;;;;;;;7.35;2.67;;;;;;;;;;5143017;27;20042;-59
2022/12/19 09:11:20;;;;;;;4.88;2.95;;;;;;;;;;5143504;27;20039;-59
2022/12/19 09:13:46;;;;;;;9.82;2.72;;;;;;;;;;5139172;27;20039;-59
2022/12/19 09:16:12;;;;;;;5.25;2.47;;;;;;;;;;5138667;27;20148;-59
2022/12/19 09:18:39;;;;;;;4.32;2.80;;;;;;;;;;5140973;27;20116;-59
2022/12/19 09:21:06;;;;;;;4.22;2.50;;;;;;;;;;5137451;27;20039;-59
2022/12/19 09:23:32;;;;;;;7.70;3.08;;;;;;;;;;5126411;27;20061;-59
2022/12/19 09:26:03;;;;;;;4.63;2.88;;;;;;;;;;5144820;27;20034;-59
2022/12/19 09:28:29;;;;;;;4.47;2.72;;;;;;;;;;5140533;27;20032;-59
2022/12/19 09:31:00;;;;;;;5.82;2.83;;;;;;;;;;5138933;27;20039;-59
2022/12/19 09:33:26;;;;;;;4.63;2.88;;;;;;;;;;5143577;27;20106;-59
2022/12/19 09:35:53;;;;;;;5.15;3.10;;;;;;;;;;5141613;27;20050;-59
2022/12/19 09:38:19;;;;;;;3.88;2.33;;;;;;;;;;5142157;27;20089;-59
2022/12/19 09:40:57;;;;;;;3.95;2.63;;;;;;;;;;5142232;27;20043;-59
2022/12/19 09:43:26;;;;;;;4.38;2.10;;;;;;;;;;5140034;27;20084;-58
2022/12/19 09:46:22;;;;;;;6.60;2.35;;;;;;;;;;5141320;27;20137;-59
2022/12/19 09:48:52;;;;;;;4.55;2.42;;;;;;;;;;5131935;27;20055;-59
2022/12/19 09:51:18;;;;;;;4.45;2.67;;;;;;;;;;5143180;27;20409;-59
2022/12/19 09:54:04;;;;;;;5.60;2.25;;;;;;;;;;5144387;27;20597;-59
2022/12/19 09:56:34;;;;;;;3.88;2.33;;;;;;;;;;5145040;27;20043;-59
2022/12/19 09:59:04;;;;;;;4.85;2.25;;;;;;;;;;5144263;27;20031;-59
2022/12/19 10:01:37;;;;;;;3.83;2.20;;;;;;;;;;5144212;27;20039;-59
2022/12/19 10:04:09;;;;;;;4.15;2.35;;;;;;;;;;5142636;27;20928;-59
2022/12/19 10:06:35;;;;;;;4.15;2.80;;;;;;;;;;5143597;27;20546;-59
2022/12/19 10:09:01;;;;;;;6.90;3.05;;;;;;;;;;5144391;27;20143;-58
2022/12/19 10:11:27;;;;;;;3.20;2.08;;;;;;;;;;5143927;27;20039;-59
2022/12/19 10:14:00;;;;;;;3.50;1.95;;;;;;;;;;5142943;27;20047;-59
2022/12/19 10:16:26;;;;;;;;;;;;;;;;;;5143136;27;20547;-59
2022/12/19 10:18:54;;;;;;;6.75;2.95;;;;;;;;;;5144757;27;19971;-59
2022/12/19 10:21:39;;;;;;;2.75;2.28;;;;;;;;;;5143145;27;20569;-59
2022/12/19 10:24:05;;;;;;;6.57;2.47;;;;;;;;;;5143609;27;20043;-59
2022/12/19 10:26:50;;;;;;;3.15;2.03;;;;;;;;;;5157428;27;20039;-59
2022/12/19 10:29:16;;;;;;;4.35;2.38;;;;;;;;;;5140128;27;20047;-59
2022/12/19 10:31:58;;;;;;;4.07;2.42;;;;;;;;;;5142560;27;20031;-59
2022/12/19 10:34:33;;;;;;;9.00;3.67;;;;;;;;;;5140764;27;20425;-59
2022/12/19 10:37:01;;;;;;;8.90;3.25;;;;;;;;;;5138963;27;20153;-59
2022/12/19 10:39:27;;;;;;;3.67;2.55;;;;;;;;;;5140833;27;20118;-59
2022/12/19 10:42:02;;;;;;;6.18;2.50;;;;;;;;;;5144507;27;20068;-59
2022/12/19 10:44:29;;;;;;;4.53;2.50;;;;;;;;;;5142856;27;20468;-58
2022/12/19 10:46:55;;;;;;;6.68;3.10;;;;;;;;;;5143242;27;20100;-59
2022/12/19 10:49:21;;;;;;;5.50;2.65;;;;;;;;;;5143573;27;20500;-59
2022/12/19 10:51:58;;;;;;;3.95;2.65;;;;;;;;;;5143009;27;20037;-59
2022/12/19 10:54:44;;;;;;;5.03;2.13;;;;;;;;;;5141234;27;20053;-59
2022/12/19 10:57:17;;;;;;;5.97;3.08;;;;;;;;;;5139641;27;20130;-59
2022/12/19 10:59:53;;;;;;;5.35;2.97;;;;;;;;;;5140329;27;20130;-59
2022/12/19 11:02:29;;;;;;;4.75;2.60;;;;;;;;;;5142491;27;20508;-59
2022/12/19 11:04:55;;;;;;;4.38;3.35;;;;;;;;;;5142576;27;20039;-60
2022/12/19 11:07:21;;;;;;;4.82;2.30;;;;;;;;;;5142681;27;20099;-59
2022/12/19 11:09:47;;;;;;;3.90;2.40;;;;;;;;;;5143715;27;20116;-59
2022/12/19 11:12:15;;;;;;;5.15;2.75;;;;;;;;;;5141418;27;20091;-59
2022/12/19 11:14:50;;;;;;;5.18;2.78;;;;;;;;;;5141534;27;20509;-59
2022/12/19 11:17:31;;;;;;;6.97;2.60;;;;;;;;;;5142048;27;20134;-59
2022/12/19 11:19:57;;;;;;;5.20;2.93;;;;;;;;;;5143700;27;20035;-58
2022/12/19 11:22:24;;;;;;;6.15;2.60;;;;;;;;;;5143233;27;20035;-58
2022/12/19 11:24:55;;;;;;;3.40;2.30;;;;;;;;;;5142910;27;20097;-58
2022/12/19 11:27:39;;;;;;;3.85;2.58;;;;;;;;;;5144144;27;20066;-58
2022/12/19 11:30:14;;;;;;;4.82;2.13;;;;;;;;;;5142312;27;20584;-58
2022/12/19 11:32:42;;;;;;;4.65;2.42;;;;;;;;;;5140342;27;20059;-58
2022/12/19 11:35:11;;;;;;;3.47;2.40;;;;;;;;;;5141455;27;20135;-58
2022/12/19 11:37:55;;;;;;;6.10;2.58;;;;;;;;;;5141174;27;20047;-58
2022/12/19 11:40:31;;;;;;;4.90;2.60;;;;;;;;;;5145135;27;20038;-58
2022/12/19 11:43:00;;;;;;;7.32;3.45;;;;;;;;;;5143296;27;20048;-58
2022/12/19 11:45:39;;;;;;;4.93;2.67;;;;;;;;;;5140137;27;20140;-58
2022/12/19 11:48:24;;;;;;;6.03;2.95;;;;;;;;;;5140664;27;20115;-58
2022/12/19 11:50:50;;;;;;;3.55;3.08;;;;;;;;;;5142924;27;20440;-58
2022/12/19 11:53:30;;;;;;;7.82;3.55;;;;;;;;;;5144065;27;20061;-58
2022/12/19 11:56:17;;;;;;;4.18;2.58;;;;;;;;;;5142803;27;20043;-58
2022/12/19 11:58:47;;;;;;;3.92;2.50;;;;;;;;;;5140047;27;20736;-58
2022/12/19 12:01:13;;;;;;;3.85;2.60;;;;;;;;;;5143097;27;20512;-58
2022/12/19 12:03:43;;;;;;;4.03;2.22;;;;;;;;;;5141821;27;20555;-58
2022/12/19 12:06:15;;;;;;;5.88;2.47;;;;;;;;;;5141084;27;20042;-58
2022/12/19 12:08:48;;;;;;;5.45;2.65;;;;;;;;;;5139847;27;20120;-58
2022/12/19 12:11:20;;;;;;;5.38;2.55;;;;;;;;;;5141754;27;20042;-58
2022/12/19 12:13:55;;;;;;;3.60;2.40;;;;;;;;;;5140606;27;20488;-58
2022/12/19 12:16:24;;;;;;;5.75;2.40;;;;;;;;;;5140030;27;20728;-58
2022/12/19 12:18:53;;;;;;;4.90;3.13;;;;;;;;;;5141678;27;20046;-58
2022/12/19 12:21:24;;;;;;;4.85;2.40;;;;;;;;;;5141621;27;20036;-58
2022/12/19 12:24:03;;;;;;;7.95;3.25;;;;;;;;;;5141254;27;20421;-58
2022/12/19 12:26:55;;;;;;;3.58;2.35;;;;;;;;;;5140358;27;20103;-58
2022/12/19 12:29:21;;;;;;;;;;;;;;;;;;5124262;27;20062;-58
2022/12/19 12:32:00;;;;;;;4.95;2.90;;;;;;;;;;5142359;27;19926;-58
2022/12/19 12:34:26;;;;;;;4.97;2.38;;;;;;;;;;5142213;27;20108;-58
2022/12/19 12:37:11;;;;;;;5.25;2.58;;;;;;;;;;5145718;27;20040;-60
2022/12/19 12:39:46;;;;;;;5.88;3.58;;;;;;;;;;5145655;27;20043;-58
2022/12/19 12:42:12;;;;;;;6.05;3.28;;;;;;;;;;5141630;27;20401;-58
2022/12/19 12:44:39;;;;;;;5.60;3.00;;;;;;;;;;5143173;27;20045;-58
2022/12/19 12:47:08;;;;;;;6.10;2.97;;;;;;;;;;5144438;27;20042;-58
2022/12/19 12:49:54;;;;;;;5.60;2.58;;;;;;;;;;5145441;27;20066;-58
2022/12/19 12:52:29;;;;;;;8.25;2.80;;;;;;;;;;5137558;27;20054;-58
2022/12/19 12:54:56;;;;;;;6.60;2.88;;;;;;;;;;5145174;27;20090;-58
2022/12/19 12:57:28;;;;;;;6.07;3.28;;;;;;;;;;5146049;27;20464;-58
2022/12/19 13:00:12;;;;;;;5.82;2.65;;;;;;;;;;5145693;27;20054;-58
2022/12/19 13:02:39;;;;;;;6.82;3.13;;;;;;;;;;5149006;27;20047;-59
2022/12/19 13:05:18;;;;;;;4.35;2.80;;;;;;;;;;5146447;27;20089;-58
2022/12/19 13:07:51;;;;;;;5.15;3.47;;;;;;;;;;5147990;27;20051;-58
2022/12/19 13:10:17;;;;;;;6.50;3.13;;;;;;;;;;5143785;27;20592;-58
2022/12/19 13:13:02;;;;;;;8.35;3.35;;;;;;;;;;5148103;27;20095;-58
2022/12/19 13:15:28;;;;;;;5.07;3.38;;;;;;;;;;5146411;27;20035;-58
2022/12/19 13:17:54;;;;;;;3.97;2.65;;;;;;;;;;5146091;27;20039;-58
2022/12/19 13:20:23;;;;;;;4.10;2.45;;;;;;;;;;5148759;27;20068;-58
2022/12/19 13:22:58;;;;;;;7.05;3.45;;;;;;;;;;5146394;27;20049;-58
2022/12/19 13:25:35;;;;;;;5.65;3.40;;;;;;;;;;5147468;27;20047;-58
2022/12/19 13:28:01;;;;;;;4.93;3.22;;;;;;;;;;5145284;27;20892;-58
2022/12/19 13:30:28;;;;;;;7.63;3.70;;;;;;;;;;5147500;27;20049;-58
2022/12/19 13:32:54;;;;;;;6.90;3.25;;;;;;;;;;5145204;27;20085;-58
2022/12/19 13:35:20;;;;;;;7.38;3.00;;;;;;;;;;5147757;27;20050;-58
2022/12/19 13:38:06;;;;;;;5.65;3.40;;;;;;;;;;5146903;27;20345;-58
2022/12/19 13:40:42;;;;;;;7.53;3.65;;;;;;;;;;5125736;27;20047;-58
2022/12/19 13:46:00;;;;;;;4.72;3.13;;;;;;;;;;5147503;27;20046;-58
2022/12/19 13:48:32;;;;;;;5.07;2.78;;;;;;;;;;5143633;27;20555;-58
2022/12/19 13:50:59;;;;;;;5.65;3.00;;;;;;;;;;5144455;27;20043;-58
2022/12/19 13:53:27;;;;;;;7.40;3.50;;;;;;;;;;5147999;27;20046;-58
2022/12/19 13:55:54;;;;;;;4.95;3.40;;;;;;;;;;5148926;27;20035;-58
2022/12/19 13:58:25;;;;;;;5.68;2.92;;;;;;;;;;5144780;27;20146;-58
2022/12/19 14:00:51;;;;;;;6.93;2.53;;;;;;;;;;5146688;27;20522;-58
2022/12/19 14:03:20;;;;;;;5.43;3.10;;;;;;;;;;5145728;27;20087;-58
2022/12/19 14:05:46;;;;;;;8.85;3.58;;;;;;;;;;5146306;27;20685;-58
2022/12/19 14:08:18;;;;;;;5.13;3.25;;;;;;;;;;5144780;27;20050;-58
2022/12/19 14:10:45;;;;;;;6.10;2.80;;;;;;;;;;5147501;27;20041;-58
2022/12/19 14:15:59;;;;;;;4.63;3.03;;;;;;;;;;5145092;27;20174;-58
2022/12/19 14:18:27;;;;;;;6.82;3.83;;;;;;;;;;5146880;27;20610;-58
2022/12/19 14:21:14;;;;;;;5.10;3.00;;;;;;;;;;5145075;27;20520;-58
2022/12/19 14:23:40;;;;;;;5.53;3.40;;;;;;;;;;5146811;27;20569;-58
2022/12/19 14:26:09;;;;;;;10.90;3.38;;;;;;;;;;5145664;27;20603;-58
2022/12/19 14:28:44;;;;;;;3.58;2.78;;;;;;;;;;5144500;27;20526;-59
2022/12/19 14:31:15;;;;;;;4.07;2.80;;;;;;;;;;5144512;27;20755;-58
2022/12/19 14:33:51;;;;;;;4.47;2.93;;;;;;;;;;5144800;27;20442;-59
2022/12/19 14:36:25;;;;;;;8.38;4.03;;;;;;;;;;5146556;27;20535;-58
2022/12/19 14:38:51;;;;;;;6.50;3.95;;;;;;;;;;5147630;27;20118;-58
2022/12/19 14:44:19;;;;;;;5.25;2.55;;;;;;;;;;5145400;27;20043;-58
2022/12/19 14:47:04;;;;;;;5.75;3.30;;;;;;;;;;5146982;27;20535;-58
2022/12/19 14:49:32;;;;;;;5.15;2.50;;;;;;;;;;5143846;27;20046;-58
2022/12/19 14:51:58;;;;;;;6.35;3.80;;;;;;;;;;5145907;27;20087;-58
2022/12/19 14:54:24;;;;;;;5.68;4.28;;;;;;;;;;5145606;27;20117;-58
2022/12/19 14:56:58;;;;;;;8.23;3.83;;;;;;;;;;5142888;27;20687;-58
2022/12/19 14:59:29;;;;;;;6.43;3.65;;;;;;;;;;5145727;27;20039;-58
2022/12/19 15:01:58;;;;;;;8.05;2.80;;;;;;;;;;5144890;27;20073;-58
2022/12/19 15:04:26;;;;;;;5.55;3.05;;;;;;;;;;5146677;27;20035;-58
2022/12/19 15:06:53;;;;;;;8.70;3.03;;;;;;;;;;5144148;27;20551;-58
2022/12/19 15:09:19;;;;;;;5.18;2.92;;;;;;;;;;5147118;27;20657;-58